Gallup Municipal Airport
KGUP : now visible

Airfield :











YOU CAN JOIN US ON...

 
LOGIN :

Register | Disclaimer

   EN    FR    IT 

 









Legend :    VFR   Marginal VFR   IFR   Intensive IFR   Very Intensive IFR
Visi :
Ceiling :
>= 8 km
>= 3000ft
5 to 8 km
1000 to 3000 ft
1500m to 5 km
500 to 1000 ft
800 to 1500m
200 to 500 ft
< 800m
< 200 ft
Symbols :   Thunderstorms  Fog  Heavy snow  Heavy precipitations  Wind > 20 kt







- Airport Elevation : 6472 ft
- IATA code : GUP


KGUP - Gallup Municipal

CURRENT METAR :
  • 211553Z AUTO 24018G25KT 10SM CLR 15/M02 A3004 RMK AO2 PK WND 22028/1522 SLP065 T01501022

EXPIRED METARs :
  • 211453Z AUTO 23019G25KT 10SM CLR 13/M03 A3003 RMK AO2 PK WND 23027/1437 SLP058 T01331028 51009
  • 211353Z AUTO 22015G20KT 10SM CLR 11/M03 A3003 RMK AO2 SLP061 T01061028

TAF KGUP
Valid from the 21 at 12:00 until the 22 at 12:00 UTC


211139Z 2112/2212 21011KT P6SM SCT120
FM211500 23015G25KT P6SM BKN250
TEMPO 2120/2124 24021G31KT
FM220200 23011KT P6SM SCT250
FM220900 VRB06KT P6SM SKC
KZAB FIR / North America



MET'MAP, your aeronautical weather chart ! - Copyright ORBIFLY December 2007 - Disclaimer

ORBIFLY MET'MAP TEAM :

Programming & Development : Alexandra Zaïnal
Concept & Development : Baudouin d'Aumeries
Co-Development & Prog : Marc-Olivier Méhu
Technical & hardware support : Manuel Goepfert

Contact : metmap@orbifly.com




SOURCES & CREDITS :

   NOAA       Earth
Advisory